Time;durP1;ratioP1;P1;durP2;ratioP2;P2;SDS_P1;SDS_P2;PMS_P1;PMS_P2;Temp;Humidity;BMP_temperature;BMP_pressure;BME280_temperature;BME280_humidity;BME280_pressure;Samples;Min_cycle;Max_cycle;Signal;HPM_P1;HPM_P2
2022/06/08 00:01:10;;;;;;;0.70;0.50;;;16.50;99.90;;;;;;5091431;28;20782;-73
2022/06/08 00:03:45;;;;;;;0.80;0.60;;;16.50;99.90;;;;;;5079082;28;20425;-73
2022/06/08 00:06:11;;;;;;;0.80;0.60;;;16.50;99.90;;;;;;5071157;28;20914;-73
2022/06/08 00:08:37;;;;;;;0.80;0.60;;;16.50;99.90;;;;;;5071450;28;20432;-77
2022/06/08 00:11:03;;;;;;;1.47;1.27;;;16.50;99.90;;;;;;5071728;28;20443;-72
2022/06/08 00:13:28;;;;;;;0.80;0.70;;;16.50;99.90;;;;;;5071396;28;20186;-73
2022/06/08 00:15:54;;;;;;;0.90;0.70;;;16.50;99.90;;;;;;5070925;28;20420;-73
2022/06/08 00:18:20;;;;;;;0.73;0.60;;;16.60;99.90;;;;;;5071386;28;20217;-73
2022/06/08 00:20:46;;;;;;;0.80;0.70;;;16.60;99.90;;;;;;5071332;28;20778;-74
2022/06/08 00:23:11;;;;;;;1.80;0.63;;;16.60;99.90;;;;;;5090505;28;20339;-74
2022/06/08 00:25:37;;;;;;;0.90;0.90;;;16.60;99.90;;;;;;5091121;28;20209;-73
2022/06/08 00:28:03;;;;;;;0.70;0.57;;;16.60;99.90;;;;;;5088670;28;20224;-73
2022/06/08 00:30:29;;;;;;;1.10;0.80;;;16.60;99.90;;;;;;5074137;28;20186;-74
2022/06/08 00:32:54;;;;;;;0.70;0.50;;;16.70;99.90;;;;;;5073609;28;20404;-73
2022/06/08 00:35:20;;;;;;;0.70;0.50;;;16.70;99.90;;;;;;5074467;28;20564;-74
2022/06/08 00:37:46;;;;;;;0.80;0.63;;;16.70;99.90;;;;;;5074687;28;20276;-76
2022/06/08 00:40:14;;;;;;;1.17;0.70;;;16.70;99.90;;;;;;5085006;28;20173;-74
2022/06/08 00:42:42;;;;;;;0.70;0.50;;;16.70;99.90;;;;;;5094979;28;20169;-73
2022/06/08 00:45:14;;;;;;;0.70;0.50;;;16.70;99.90;;;;;;5094476;28;20400;-73
2022/06/08 00:47:50;;;;;;;0.77;0.60;;;16.70;99.90;;;;;;5093390;28;20407;-73
2022/06/08 00:50:22;;;;;;;2.30;0.87;;;16.70;99.90;;;;;;5073279;28;20519;-73
2022/06/08 00:52:49;;;;;;;0.90;0.80;;;16.70;99.90;;;;;;5074540;28;20493;-73
2022/06/08 00:55:18;;;;;;;0.83;0.80;;;16.70;99.90;;;;;;5074054;28;20424;-73
2022/06/08 00:57:54;;;;;;;2.80;1.23;;;16.70;99.90;;;;;;5074763;28;20957;-73
2022/06/08 01:00:30;;;;;;;0.70;0.50;;;16.70;99.90;;;;;;5074395;28;20426;-73
2022/06/08 01:02:56;;;;;;;1.20;0.70;;;16.70;99.90;;;;;;5074400;28;20996;-73
2022/06/08 01:05:22;;;;;;;1.20;1.00;;;16.70;99.90;;;;;;5074059;28;20511;-73
2022/06/08 01:07:50;;;;;;;0.70;0.60;;;16.60;99.90;;;;;;5074340;28;20551;-73
2022/06/08 01:10:20;;;;;;;0.90;0.70;;;16.70;99.90;;;;;;5074258;28;20268;-73
2022/06/08 01:12:46;;;;;;;0.80;0.60;;;16.60;99.90;;;;;;5072941;28;20478;-74
2022/06/08 01:15:16;;;;;;;0.70;0.50;;;16.60;99.90;;;;;;5073712;28;20416;-73
2022/06/08 01:17:41;;;;;;;0.80;0.60;;;16.60;99.90;;;;;;5076887;28;20455;-74
2022/06/08 01:20:10;;;;;;;0.80;0.60;;;16.60;99.90;;;;;;5093999;28;20429;-73
2022/06/08 01:22:36;;;;;;;0.80;0.60;;;16.60;99.90;;;;;;5094326;28;20165;-73
2022/06/08 01:25:02;;;;;;;0.70;0.50;;;16.60;99.90;;;;;;5093658;28;20769;-74
2022/06/08 01:27:49;;;;;;;1.57;1.07;;;16.60;99.90;;;;;;5094171;28;20268;-74
2022/06/08 01:30:22;;;;;;;1.37;0.70;;;16.60;99.90;;;;;;5086355;28;20189;-73
2022/06/08 01:33:28;;;;;;;1.00;0.60;;;16.60;99.90;;;;;;5072595;28;20779;-73
2022/06/08 01:36:25;;;;;;;0.90;0.60;;;16.50;99.90;;;;;;5073399;28;20432;-74
2022/06/08 01:38:58;;;;;;;1.00;0.70;;;16.50;99.90;;;;;;5073635;28;20815;-73
2022/06/08 01:41:49;;;;;;;1.20;0.77;;;16.40;99.90;;;;;;5072516;28;20400;-74
2022/06/08 01:44:37;;;;;;;0.80;0.60;;;16.30;99.90;;;;;;5073494;28;20816;-76
2022/06/08 01:47:21;;;;;;;0.80;0.60;;;16.30;99.90;;;;;;5072111;28;20799;-74
2022/06/08 01:50:09;;;;;;;1.60;0.83;;;16.10;99.90;;;;;;5072253;28;20412;-73
2022/06/08 01:53:31;;;;;;;0.80;0.60;;;16.10;99.90;;;;;;5073446;28;20400;-73
2022/06/08 01:56:12;;;;;;;1.00;0.70;;;15.90;99.90;;;;;;4991358;28;20451;-74
2022/06/08 01:58:37;;;;;;;1.00;0.90;;;15.80;99.90;;;;;;5062006;28;20488;-73
2022/06/08 02:01:21;;;;;;;1.00;0.73;;;15.80;99.90;;;;;;5073084;28;20452;-73
2022/06/08 02:04:14;;;;;;;1.00;0.90;;;15.70;99.90;;;;;;5073233;28;20212;-74
2022/06/08 02:06:58;;;;;;;0.80;0.70;;;15.70;99.90;;;;;;5041467;28;20476;-73
2022/06/08 02:09:37;;;;;;;0.80;0.63;;;15.60;99.90;;;;;;5073078;28;20458;-73
2022/06/08 02:12:06;;;;;;;0.80;0.60;;;15.60;99.90;;;;;;5073037;28;20392;-73
2022/06/08 02:15:10;;;;;;;0.70;0.50;;;15.50;99.90;;;;;;5072519;28;20412;-74
2022/06/08 02:17:51;;;;;;;0.80;0.63;;;15.50;99.90;;;;;;5069482;28;20460;-75
2022/06/08 02:20:19;;;;;;;0.73;0.60;;;15.40;99.90;;;;;;5093121;28;20403;-73
2022/06/08 02:23:12;;;;;;;1.00;0.80;;;15.40;99.90;;;;;;5091685;28;20415;-75
2022/06/08 02:26:13;;;;;;;0.70;0.50;;;15.30;99.90;;;;;;5092118;28;20933;-74
2022/06/08 02:29:02;;;;;;;0.70;0.50;;;15.30;99.90;;;;;;5075818;28;20424;-73
2022/06/08 02:31:35;;;;;;;0.70;0.50;;;15.30;99.90;;;;;;5076809;28;20448;-74
2022/06/08 02:36:56;;;;;;;1.00;0.70;;;15.20;99.90;;;;;;5072576;28;20782;-75
2022/06/08 02:39:35;;;;;;;0.80;0.70;;;15.20;99.90;;;;;;5072392;28;20942;-73
2022/06/08 02:42:12;;;;;;;1.10;0.60;;;15.20;99.90;;;;;;5073313;28;20423;-73
2022/06/08 02:44:40;;;;;;;0.97;0.60;;;15.10;99.90;;;;;;5092593;28;20842;-73
2022/06/08 02:47:30;;;;;;;0.87;0.73;;;15.10;99.90;;;;;;5091252;28;20423;-76
2022/06/08 02:50:03;;;;;;;0.80;0.77;;;15.10;99.90;;;;;;5091276;28;20435;-73
2022/06/08 02:52:30;;;;;;;0.70;0.60;;;15.00;99.90;;;;;;5092372;28;20402;-73
2022/06/08 02:54:56;;;;;;;0.73;0.60;;;15.00;99.90;;;;;;5091470;28;20431;-73
2022/06/08 02:57:46;;;;;;;0.70;0.50;;;15.00;99.90;;;;;;5076500;28;20515;-73
2022/06/08 03:00:17;;;;;;;0.73;0.60;;;15.00;99.90;;;;;;5072181;28;20478;-73
2022/06/08 03:03:07;;;;;;;0.90;0.80;;;15.00;99.90;;;;;;5070936;28;20508;-73
2022/06/08 03:05:50;;;;;;;0.73;0.57;;;15.00;99.90;;;;;;5071802;28;20489;-74
2022/06/08 03:08:26;;;;;;;2.53;0.90;;;15.00;99.90;;;;;;5072165;28;20483;-73
2022/06/08 03:10:54;;;;;;;0.70;0.50;;;14.90;99.90;;;;;;5071975;28;20420;-76
2022/06/08 03:13:30;;;;;;;1.47;0.70;;;15.00;99.90;;;;;;5072006;28;20454;-73
2022/06/08 03:16:01;;;;;;;1.33;1.17;;;15.00;99.90;;;;;;5071688;28;20425;-73
2022/06/08 03:18:28;;;;;;;0.70;0.50;;;15.00;99.90;;;;;;5078290;28;20463;-73
2022/06/08 03:20:55;;;;;;;1.10;0.83;;;15.00;99.90;;;;;;5092143;28;20844;-73
2022/06/08 03:23:21;;;;;;;0.90;0.80;;;15.10;99.90;;;;;;5090778;28;20399;-73
2022/06/08 03:25:47;;;;;;;1.10;0.80;;;15.10;99.90;;;;;;5090438;28;20954;-73
2022/06/08 03:28:14;;;;;;;0.70;0.60;;;15.20;99.90;;;;;;5092066;28;20507;-73
2022/06/08 03:30:41;;;;;;;0.70;0.50;;;15.30;99.90;;;;;;5091644;28;20435;-74
2022/06/08 03:33:08;;;;;;;0.80;0.70;;;15.30;99.90;;;;;;5091948;28;20407;-74
2022/06/08 03:35:34;;;;;;;2.43;1.03;;;15.40;99.90;;;;;;5091643;28;20427;-73
2022/06/08 03:38:00;;;;;;;0.73;0.60;;;15.50;99.90;;;;;;5091903;28;20443;-73
2022/06/08 03:40:27;;;;;;;0.70;0.60;;;15.50;99.90;;;;;;5091941;28;20404;-74
2022/06/08 03:42:53;;;;;;;0.87;0.80;;;15.60;99.90;;;;;;5091740;28;20183;-72
2022/06/08 03:45:19;;;;;;;0.70;0.50;;;15.60;99.90;;;;;;5091162;28;20461;-75
2022/06/08 03:47:48;;;;;;;1.13;0.70;;;15.70;99.90;;;;;;5090094;28;20427;-73
2022/06/08 03:50:18;;;;;;;0.80;0.77;;;15.70;99.90;;;;;;5092109;28;20656;-72
2022/06/08 03:52:51;;;;;;;1.20;1.10;;;15.80;99.90;;;;;;5091844;28;20411;-76
2022/06/08 03:55:19;;;;;;;0.90;0.70;;;15.80;99.90;;;;;;5090084;28;20442;-73
2022/06/08 03:57:45;;;;;;;0.80;0.80;;;15.80;99.90;;;;;;5072209;28;20974;-73
2022/06/08 04:00:14;;;;;;;0.77;0.53;;;15.90;99.90;;;;;;5071588;28;20396;-74
2022/06/08 04:02:40;;;;;;;6.73;1.07;;;15.90;99.90;;;;;;5071478;28;20405;-75
2022/06/08 04:05:06;;;;;;;0.90;0.80;;;16.00;99.90;;;;;;5073816;28;20841;-76
2022/06/08 04:07:32;;;;;;;1.03;0.87;;;16.00;99.90;;;;;;5092087;28;20423;-74
2022/06/08 04:09:59;;;;;;;2.23;2.03;;;16.00;99.90;;;;;;5094187;28;20447;-75
2022/06/08 04:12:25;;;;;;;0.77;0.60;;;16.00;99.90;;;;;;5095387;28;20407;-73
2022/06/08 04:14:51;;;;;;;1.40;1.30;;;16.00;99.90;;;;;;5095263;28;20407;-73
2022/06/08 04:17:17;;;;;;;0.80;0.70;;;16.00;99.90;;;;;;5080397;28;20452;-72
2022/06/08 04:19:44;;;;;;;1.00;0.80;;;16.00;99.90;;;;;;5075211;28;20500;-73
2022/06/08 04:22:10;;;;;;;4.00;1.30;;;16.00;99.90;;;;;;5075278;28;20752;-73
2022/06/08 04:24:35;;;;;;;2.10;1.00;;;16.10;99.90;;;;;;5074759;28;20431;-73
2022/06/08 04:27:01;;;;;;;1.00;0.90;;;16.10;99.90;;;;;;5075340;28;20435;-73
2022/06/08 04:29:26;;;;;;;1.63;0.70;;;16.00;99.90;;;;;;5073794;28;20536;-77
2022/06/08 04:31:52;;;;;;;0.77;0.63;;;16.10;99.90;;;;;;5074965;28;20299;-73
2022/06/08 04:34:19;;;;;;;0.90;0.70;;;16.10;99.90;;;;;;5074754;28;20177;-73
2022/06/08 04:36:45;;;;;;;1.30;1.20;;;16.10;99.90;;;;;;5074818;28;20193;-73
2022/06/08 04:39:13;;;;;;;0.80;0.70;;;16.10;99.90;;;;;;5074754;28;20463;-76
2022/06/08 04:41:38;;;;;;;1.27;0.63;;;16.10;99.90;;;;;;5074930;28;20446;-73
2022/06/08 04:44:05;;;;;;;0.80;0.70;;;16.20;99.90;;;;;;5075014;28;20728;-74
2022/06/08 04:46:30;;;;;;;1.20;0.80;;;16.30;99.90;;;;;;5073365;28;20190;-73
2022/06/08 04:48:56;;;;;;;0.80;0.60;;;16.30;99.90;;;;;;5074913;28;20427;-73
2022/06/08 04:51:22;;;;;;;0.93;0.77;;;16.50;99.90;;;;;;5073859;28;20170;-74
2022/06/08 04:53:47;;;;;;;0.90;0.80;;;16.60;99.90;;;;;;5074515;28;20193;-73
2022/06/08 04:56:13;;;;;;;0.70;0.60;;;16.60;99.90;;;;;;5078569;28;20724;-76
2022/06/08 04:58:39;;;;;;;2.30;1.50;;;16.80;99.90;;;;;;5094513;28;20572;-76
2022/06/08 05:01:05;;;;;;;1.27;1.17;;;16.90;99.90;;;;;;5094370;28;20416;-74
2022/06/08 05:03:31;;;;;;;0.90;0.70;;;17.00;99.90;;;;;;5093239;28;20193;-74
2022/06/08 05:05:59;;;;;;;1.30;1.20;;;17.10;99.90;;;;;;5091917;28;20224;-74
2022/06/08 05:08:25;;;;;;;0.80;0.60;;;17.20;99.90;;;;;;5074303;28;20869;-74
2022/06/08 05:10:52;;;;;;;0.70;0.60;;;17.30;99.90;;;;;;5074195;28;20492;-74
2022/06/08 05:13:19;;;;;;;0.87;0.80;;;17.40;99.90;;;;;;5074227;28;20462;-77
2022/06/08 05:15:45;;;;;;;4.80;1.10;;;17.50;99.90;;;;;;5076489;28;20446;-76
2022/06/08 05:18:12;;;;;;;1.10;1.00;;;17.50;99.90;;;;;;5094232;28;20859;-74
2022/06/08 05:20:40;;;;;;;0.80;0.60;;;17.60;99.90;;;;;;5094403;28;20399;-76
2022/06/08 05:23:08;;;;;;;1.00;0.80;;;17.70;99.90;;;;;;5094091;28;20404;-76
2022/06/08 05:25:37;;;;;;;1.43;0.80;;;17.70;99.90;;;;;;5093410;28;20543;-76
2022/06/08 05:28:03;;;;;;;1.03;0.70;;;17.80;99.90;;;;;;5094134;28;20511;-76
2022/06/08 05:30:29;;;;;;;0.80;0.73;;;17.80;99.90;;;;;;5094085;28;20404;-75
2022/06/08 05:32:55;;;;;;;0.80;0.70;;;17.90;99.90;;;;;;5092735;28;20628;-75
2022/06/08 05:35:23;;;;;;;1.10;1.00;;;18.00;99.90;;;;;;5091747;28;20193;-76
2022/06/08 05:37:49;;;;;;;0.97;0.87;;;18.10;99.90;;;;;;5073464;28;20519;-74
2022/06/08 05:40:14;;;;;;;0.90;0.80;;;18.20;99.90;;;;;;5073604;28;20439;-75
2022/06/08 05:42:40;;;;;;;0.80;0.60;;;18.30;99.90;;;;;;5073592;28;20166;-72
2022/06/08 05:45:11;;;;;;;1.00;0.80;;;18.40;99.90;;;;;;5073309;28;20159;-72
2022/06/08 05:47:37;;;;;;;1.00;0.90;;;18.50;99.90;;;;;;5073457;28;20400;-73
2022/06/08 05:50:03;;;;;;;1.17;0.90;;;18.60;99.90;;;;;;5073604;28;20458;-76
2022/06/08 05:52:29;;;;;;;0.97;0.70;;;18.70;99.90;;;;;;5073426;28;20177;-72
2022/06/08 05:54:55;;;;;;;1.43;1.17;;;18.80;99.90;;;;;;5072969;28;20515;-75
2022/06/08 05:57:21;;;;;;;1.03;0.87;;;18.80;99.90;;;;;;5091283;28;20577;-73
2022/06/08 05:59:46;;;;;;;1.00;0.80;;;18.90;99.90;;;;;;5093505;28;20162;-74
2022/06/08 06:02:13;;;;;;;1.03;0.90;;;19.00;99.90;;;;;;5093436;28;20235;-73
2022/06/08 06:04:40;;;;;;;0.90;0.70;;;19.10;99.90;;;;;;5092675;28;20176;-76
2022/06/08 06:07:06;;;;;;;0.70;0.60;;;19.10;99.90;;;;;;5093290;28;20883;-74
2022/06/08 06:09:32;;;;;;;1.30;1.10;;;19.20;99.90;;;;;;5093328;28;20434;-72
2022/06/08 06:11:58;;;;;;;0.90;0.80;;;19.30;99.90;;;;;;5093322;28;20531;-74
2022/06/08 06:14:23;;;;;;;1.27;0.90;;;19.30;99.90;;;;;;5075743;28;20416;-73
2022/06/08 06:16:49;;;;;;;1.00;0.90;;;19.40;99.90;;;;;;5072818;28;20428;-73
2022/06/08 06:19:14;;;;;;;0.80;0.60;;;19.50;99.90;;;;;;5072765;28;20680;-72
2022/06/08 06:21:40;;;;;;;1.07;0.90;;;19.60;99.90;;;;;;5072743;28;20647;-75
2022/06/08 06:24:06;;;;;;;0.77;0.60;;;19.70;99.90;;;;;;5086816;28;20599;-75
2022/06/08 06:26:32;;;;;;;0.80;0.67;;;19.70;99.90;;;;;;5092259;28;20185;-76
2022/06/08 06:28:58;;;;;;;1.10;0.90;;;19.90;99.90;;;;;;5093017;28;20176;-72
2022/06/08 06:31:25;;;;;;;1.33;1.00;;;20.00;99.90;;;;;;5092981;28;20467;-76
2022/06/08 06:33:51;;;;;;;1.00;0.83;;;20.10;99.90;;;;;;5080570;28;20419;-73
2022/06/08 06:36:16;;;;;;;1.47;0.90;;;20.20;99.90;;;;;;5087726;28;20439;-73
2022/06/08 06:38:42;;;;;;;1.03;0.83;;;20.40;99.90;;;;;;5091357;28;20251;-75
2022/06/08 06:41:09;;;;;;;2.10;0.90;;;20.60;99.90;;;;;;5091433;28;20177;-72
2022/06/08 06:43:35;;;;;;;1.40;1.00;;;20.80;99.90;;;;;;5092462;28;20168;-76
2022/06/08 06:46:02;;;;;;;0.90;0.70;;;21.00;99.90;;;;;;5091957;28;20474;-74
2022/06/08 06:48:28;;;;;;;0.83;0.80;;;21.30;99.90;;;;;;5092616;28;20404;-74
2022/06/08 06:50:54;;;;;;;0.80;0.67;;;21.50;99.90;;;;;;5092453;28;20750;-72
2022/06/08 06:53:19;;;;;;;0.90;0.70;;;21.80;99.90;;;;;;5090562;28;20181;-74
2022/06/08 06:55:45;;;;;;;0.83;0.80;;;22.10;99.90;;;;;;5092257;28;20196;-74
2022/06/08 06:58:10;;;;;;;1.20;0.90;;;22.20;99.90;;;;;;5092471;28;20196;-73
2022/06/08 07:00:36;;;;;;;1.13;0.60;;;22.30;99.90;;;;;;5092531;28;20636;-73
2022/06/08 07:03:01;;;;;;;1.00;0.73;;;22.40;99.90;;;;;;5087951;28;20174;-73
2022/06/08 07:05:32;;;;;;;0.80;0.70;;;22.40;99.90;;;;;;5071686;28;20629;-74
2022/06/08 07:07:57;;;;;;;0.80;0.70;;;22.40;99.90;;;;;;5072119;28;20253;-74
2022/06/08 07:10:23;;;;;;;0.80;0.70;;;22.30;99.90;;;;;;5072144;28;20496;-74
2022/06/08 07:12:49;;;;;;;0.90;0.70;;;22.30;99.90;;;;;;5073643;28;20174;-74
2022/06/08 07:15:18;;;;;;;1.10;1.00;;;22.20;99.90;;;;;;5091892;28;20640;-76
2022/06/08 07:17:44;;;;;;;0.80;0.70;;;22.20;99.90;;;;;;5092062;28;20451;-73
2022/06/08 07:20:11;;;;;;;0.90;0.73;;;22.20;99.90;;;;;;5090816;28;20495;-73
2022/06/08 07:22:37;;;;;;;0.90;0.70;;;22.10;99.90;;;;;;5091921;28;20620;-74
2022/06/08 07:25:04;;;;;;;1.00;0.97;;;22.00;99.90;;;;;;5071490;28;20511;-73
2022/06/08 07:27:30;;;;;;;1.87;0.87;;;22.00;99.90;;;;;;5071847;28;20420;-74
2022/06/08 07:29:56;;;;;;;0.80;0.70;;;22.00;99.90;;;;;;5071784;28;20408;-75
2022/06/08 07:32:21;;;;;;;0.80;0.63;;;22.00;99.90;;;;;;5071824;28;20317;-73
2022/06/08 07:34:47;;;;;;;0.80;0.60;;;22.00;99.90;;;;;;5089125;28;20208;-74
2022/06/08 07:37:12;;;;;;;0.80;0.60;;;22.00;99.90;;;;;;5091868;28;20193;-73
2022/06/08 07:39:38;;;;;;;0.90;0.70;;;22.00;99.90;;;;;;5092636;28;20166;-75
2022/06/08 07:42:04;;;;;;;1.37;1.00;;;22.00;99.90;;;;;;5096123;28;20172;-73
2022/06/08 07:44:30;;;;;;;1.27;1.17;;;22.00;99.90;;;;;;5080442;28;20253;-74
2022/06/08 07:46:55;;;;;;;0.70;0.60;;;22.00;99.90;;;;;;5075269;28;20946;-72
2022/06/08 07:49:39;;;;;;;0.90;0.80;;;22.10;99.90;;;;;;5074540;28;20178;-72
2022/06/08 07:52:13;;;;;;;1.30;0.87;;;22.10;99.90;;;;;;5075733;28;20248;-74
2022/06/08 07:54:40;;;;;;;1.10;0.80;;;22.20;99.90;;;;;;5075391;28;20518;-72
2022/06/08 07:57:11;;;;;;;0.80;0.70;;;22.40;99.90;;;;;;5088028;28;20973;-73
2022/06/08 07:59:38;;;;;;;1.77;0.87;;;23.20;99.90;;;;;;5095836;28;20420;-73
2022/06/08 08:02:05;;;;;;;0.80;0.60;;;24.70;99.90;;;;;;5095829;28;20463;-73
2022/06/08 08:04:31;;;;;;;0.90;0.70;;;26.30;99.90;;;;;;5095455;28;20403;-74
2022/06/08 08:06:56;;;;;;;1.53;1.43;;;28.00;99.90;;;;;;5082754;28;20437;-74
2022/06/08 08:09:23;;;;;;;2.30;1.30;;;29.20;99.90;;;;;;5075391;28;20253;-73
2022/06/08 08:11:51;;;;;;;1.00;0.80;;;30.10;99.90;;;;;;5075298;28;20270;-73
2022/06/08 08:14:18;;;;;;;0.90;0.80;;;31.00;99.90;;;;;;5074969;28;20404;-75
2022/06/08 08:16:45;;;;;;;2.70;1.20;;;32.10;99.90;;;;;;5085608;28;21171;-74
2022/06/08 08:19:13;;;;;;;1.00;0.90;;;33.40;92.90;;;;;;5095410;28;20451;-74
2022/06/08 08:21:38;;;;;;;2.10;0.87;;;34.20;83.10;;;;;;5095487;28;20408;-74
2022/06/08 08:24:05;;;;;;;1.23;1.13;;;34.80;75.50;;;;;;5095296;28;20742;-74
2022/06/08 08:26:32;;;;;;;1.10;0.90;;;35.10;67.40;;;;;;5094319;28;20606;-73
2022/06/08 08:28:57;;;;;;;1.20;1.00;;;35.70;65.30;;;;;;5095321;28;20402;-76
2022/06/08 08:31:24;;;;;;;2.93;1.13;;;36.30;59.40;;;;;;5095320;28;20408;-72
2022/06/08 08:33:50;;;;;;;1.30;0.90;;;36.90;56.10;;;;;;5093945;28;20216;-73
2022/06/08 08:36:17;;;;;;;1.00;0.90;;;38.30;54.10;;;;;;5087162;28;20459;-74
2022/06/08 08:38:42;;;;;;;1.00;0.90;;;39.90;49.80;;;;;;5074878;28;20664;-73
2022/06/08 08:43:59;;;;;;;1.00;0.90;;;43.20;44.00;;;;;;5074944;28;20593;-73
2022/06/08 08:46:45;;;;;;;3.20;1.40;;;44.50;41.20;;;;;;5081253;28;20443;-72
2022/06/08 08:49:23;;;;;;;1.37;1.27;;;45.30;38.80;;;;;;5094855;28;20407;-73
2022/06/08 08:52:15;;;;;;;1.20;1.10;;;45.60;37.00;;;;;;5094787;28;20380;-73
2022/06/08 08:54:50;;;;;;;1.40;1.30;;;45.80;35.70;;;;;;5085381;28;20486;-72
2022/06/08 08:57:58;;;;;;;1.37;1.27;;;45.70;34.70;;;;;;5080211;28;20429;-74
2022/06/08 09:00:37;;;;;;;1.00;0.90;;;45.50;34.10;;;;;;5012301;28;20421;-74
2022/06/08 09:03:23;;;;;;;1.00;0.90;;;45.00;33.60;;;;;;5012414;28;20403;-74
2022/06/08 09:05:51;;;;;;;1.50;1.30;;;45.20;34.00;;;;;;5039460;28;20912;-73
2022/06/08 09:08:19;;;;;;;1.23;1.13;;;45.70;33.70;;;;;;5093693;28;20862;-73
2022/06/08 09:10:46;;;;;;;1.13;1.03;;;45.90;33.00;;;;;;5093986;28;20439;-74
2022/06/08 09:13:47;;;;;;;1.00;0.90;;;45.30;32.20;;;;;;5094331;28;20431;-73
2022/06/08 09:16:35;;;;;;;1.20;1.10;;;44.50;32.60;;;;;;5085293;28;20444;-74
2022/06/08 09:19:21;;;;;;;1.20;1.10;;;43.80;33.10;;;;;;5073732;28;20459;-73
2022/06/08 09:22:07;;;;;;;1.10;1.00;;;43.20;33.60;;;;;;5073713;28;20404;-74
2022/06/08 09:25:02;;;;;;;1.00;0.90;;;42.50;34.00;;;;;;5062574;28;20412;-73
2022/06/08 09:27:27;;;;;;;1.07;0.97;;;41.60;34.40;;;;;;5090341;28;20454;-74
2022/06/08 09:30:08;;;;;;;1.10;0.87;;;40.80;35.30;;;;;;5093847;28;20396;-76
2022/06/08 09:32:58;;;;;;;1.10;0.97;;;40.50;36.40;;;;;;5092506;28;20529;-74
2022/06/08 09:35:29;;;;;;;1.10;1.00;;;40.50;36.60;;;;;;5090801;28;20428;-75
2022/06/08 09:37:59;;;;;;;1.00;0.90;;;40.90;36.80;;;;;;5072185;28;20452;-72
2022/06/08 09:40:37;;;;;;;1.53;1.10;;;41.10;35.80;;;;;;5073515;28;20833;-72
2022/06/08 09:43:13;;;;;;;1.00;0.90;;;40.70;35.30;;;;;;5073407;28;20395;-73
2022/06/08 09:45:58;;;;;;;1.10;0.90;;;40.00;35.60;;;;;;5077037;28;20459;-74
2022/06/08 09:51:29;;;;;;;1.20;1.07;;;37.40;36.70;;;;;;5093482;28;20395;-73
2022/06/08 09:54:04;;;;;;;0.90;0.80;;;35.70;37.90;;;;;;5093266;28;20514;-72
2022/06/08 09:56:59;;;;;;;1.00;0.77;;;34.30;39.30;;;;;;5081513;28;21020;-73
2022/06/08 09:59:46;;;;;;;0.90;0.77;;;32.80;41.20;;;;;;5071733;28;20462;-73
2022/06/08 10:02:30;;;;;;;1.20;0.90;;;31.50;43.30;;;;;;5072056;28;20400;-73
2022/06/08 10:05:27;;;;;;;1.00;0.80;;;30.40;45.00;;;;;;5072745;28;20506;-72
2022/06/08 10:08:14;;;;;;;1.33;0.90;;;29.40;47.50;;;;;;5059695;28;20417;-74
2022/06/08 10:11:03;;;;;;;1.17;0.80;;;28.40;48.80;;;;;;5071730;28;20945;-74
2022/06/08 10:13:42;;;;;;;1.37;1.00;;;27.60;50.30;;;;;;5073030;28;20483;-73
2022/06/08 10:16:16;;;;;;;0.90;0.70;;;27.00;52.20;;;;;;5079306;28;20591;-72
2022/06/08 10:18:48;;;;;;;1.20;0.77;;;26.40;56.40;;;;;;5091706;28;20821;-74
2022/06/08 10:21:16;;;;;;;0.80;0.70;;;25.90;63.70;;;;;;5091566;28;20403;-74
2022/06/08 10:24:01;;;;;;;0.80;0.60;;;25.40;77.60;;;;;;5092847;28;20492;-73
2022/06/08 10:26:33;;;;;;;1.07;0.97;;;25.00;97.10;;;;;;5082687;28;20428;-73
2022/06/08 10:29:12;;;;;;;0.87;0.70;;;24.70;99.90;;;;;;5072604;28;20404;-73
2022/06/08 10:31:42;;;;;;;0.97;0.67;;;24.50;99.90;;;;;;5072281;28;20861;-74
2022/06/08 10:34:17;;;;;;;3.30;0.80;;;24.30;99.90;;;;;;5072241;28;20768;-80
2022/06/08 10:36:49;;;;;;;0.90;0.70;;;24.10;99.90;;;;;;5103246;28;20431;-76
2022/06/08 10:39:25;;;;;;;1.30;0.70;;;24.00;99.90;;;;;;5112685;28;20709;-74
2022/06/08 10:42:40;;;;;;;0.90;0.73;;;23.80;99.90;;;;;;5107791;28;20982;-72
2022/06/08 10:45:22;;;;;;;0.90;0.60;;;23.70;99.90;;;;;;5111246;28;20395;-73
2022/06/08 10:48:15;;;;;;;1.00;0.90;;;23.50;99.90;;;;;;5094734;28;20519;-73
2022/06/08 10:50:48;;;;;;;2.60;0.60;;;23.40;99.90;;;;;;5090540;28;20947;-76
2022/06/08 10:56:34;;;;;;;0.90;0.70;;;23.20;99.90;;;;;;5089324;28;20446;-75
2022/06/08 10:59:03;;;;;;;0.80;0.70;;;23.00;99.90;;;;;;5105474;28;20464;-76
2022/06/08 11:01:41;;;;;;;1.00;0.70;;;22.90;99.90;;;;;;5106613;28;20452;-74
2022/06/08 11:04:26;;;;;;;1.17;0.80;;;22.80;99.90;;;;;;5106880;28;20408;-74
2022/06/08 11:07:05;;;;;;;0.80;0.60;;;22.80;99.90;;;;;;5098359;28;20427;-76
2022/06/08 11:09:34;;;;;;;1.00;0.70;;;22.70;99.90;;;;;;5087064;28;20779;-77
2022/06/08 11:12:27;;;;;;;1.27;1.17;;;22.70;99.90;;;;;;5084561;28;20412;-76
2022/06/08 11:14:57;;;;;;;0.87;0.67;;;22.60;99.90;;;;;;5073749;28;20409;-75
2022/06/08 11:17:50;;;;;;;0.80;0.50;;;22.50;99.90;;;;;;5098257;28;20474;-73
2022/06/08 11:20:20;;;;;;;1.00;0.83;;;22.50;99.90;;;;;;5102741;28;20400;-74
2022/06/08 11:22:53;;;;;;;0.80;0.70;;;22.40;99.90;;;;;;5101359;28;20491;-73
2022/06/08 11:25:26;;;;;;;1.03;0.80;;;22.40;99.90;;;;;;5096546;28;20473;-75
2022/06/08 11:28:29;;;;;;;0.80;0.50;;;22.30;99.90;;;;;;5082457;28;20443;-76
2022/06/08 11:31:01;;;;;;;0.80;0.60;;;22.20;99.90;;;;;;5083691;28;20420;-77
2022/06/08 11:34:02;;;;;;;0.80;0.60;;;22.10;99.90;;;;;;5081511;28;20413;-77
2022/06/08 11:36:47;;;;;;;1.97;1.33;;;22.00;99.90;;;;;;5088104;28;20440;-75
2022/06/08 11:39:34;;;;;;;1.30;0.83;;;21.90;99.90;;;;;;5101971;28;20513;-74
2022/06/08 11:42:35;;;;;;;1.73;0.83;;;21.90;99.90;;;;;;5102465;28;20415;-77
2022/06/08 11:45:18;;;;;;;0.90;0.70;;;21.80;99.90;;;;;;5049672;28;20407;-77
2022/06/08 11:48:14;;;;;;;1.00;0.70;;;21.70;99.90;;;;;;5084730;28;20455;-77
2022/06/08 11:50:52;;;;;;;1.20;0.73;;;21.70;99.90;;;;;;5069478;28;20435;-76
2022/06/08 11:53:31;;;;;;;0.90;0.60;;;21.70;99.90;;;;;;5079976;28;20412;-75
2022/06/08 11:56:29;;;;;;;0.80;0.70;;;21.70;99.90;;;;;;5083693;28;20466;-76
2022/06/08 11:59:00;;;;;;;0.80;0.50;;;21.80;99.90;;;;;;5101119;28;20462;-76
2022/06/08 12:01:31;;;;;;;1.00;0.80;;;21.80;99.90;;;;;;5100847;28;20427;-75
2022/06/08 12:04:08;;;;;;;0.80;0.70;;;21.80;99.90;;;;;;5099361;28;20447;-76
2022/06/08 12:06:37;;;;;;;0.90;0.70;;;21.80;99.90;;;;;;5091101;28;20438;-76
2022/06/08 12:09:15;;;;;;;1.00;0.60;;;21.80;99.90;;;;;;5079819;28;20423;-76
2022/06/08 12:11:53;;;;;;;0.87;0.73;;;21.90;99.90;;;;;;5082940;28;20910;-77
2022/06/08 12:14:29;;;;;;;1.20;1.03;;;21.90;99.90;;;;;;5083510;28;20466;-74
2022/06/08 12:17:01;;;;;;;1.30;0.60;;;22.00;99.90;;;;;;5094819;28;20502;-76
2022/06/08 12:19:30;;;;;;;0.90;0.70;;;22.10;99.90;;;;;;5103598;28;21008;-76
2022/06/08 12:22:19;;;;;;;0.80;0.60;;;22.10;99.90;;;;;;5108876;28;20415;-76
2022/06/08 12:25:05;;;;;;;1.23;1.13;;;22.10;99.90;;;;;;5106772;28;20412;-75
2022/06/08 12:27:43;;;;;;;1.50;0.73;;;22.20;99.90;;;;;;5075633;28;20459;-77
2022/06/08 12:30:26;;;;;;;1.70;1.60;;;22.20;99.90;;;;;;5087063;28;20400;-75
2022/06/08 12:33:29;;;;;;;1.00;0.80;;;22.20;99.90;;;;;;5075829;28;20416;-77
2022/06/08 12:35:56;;;;;;;1.23;0.80;;;22.20;99.90;;;;;;5084202;28;21193;-78
2022/06/08 12:38:24;;;;;;;0.90;0.60;;;22.20;99.90;;;;;;5088005;28;20523;-76
2022/06/08 12:40:58;;;;;;;0.80;0.60;;;22.30;99.90;;;;;;5084823;28;20431;-77
2022/06/08 12:43:39;;;;;;;0.80;0.60;;;22.30;99.90;;;;;;5081738;28;20416;-76
2022/06/08 12:46:17;;;;;;;0.80;0.70;;;22.40;99.90;;;;;;5086348;28;20933;-78
2022/06/08 12:48:55;;;;;;;1.00;0.60;;;22.50;99.90;;;;;;5108821;28;20461;-77
2022/06/08 12:51:28;;;;;;;0.80;0.60;;;22.60;99.90;;;;;;5107029;28;20403;-78
2022/06/08 12:53:54;;;;;;;1.77;0.87;;;22.60;99.90;;;;;;5103744;28;20462;-75
2022/06/08 12:56:22;;;;;;;1.00;0.73;;;22.60;99.90;;;;;;5095560;28;20507;-77
2022/06/08 12:58:49;;;;;;;0.90;0.80;;;22.60;99.90;;;;;;5079928;28;20448;-77
2022/06/08 13:01:15;;;;;;;2.33;1.00;;;22.60;99.90;;;;;;5083357;28;20480;-78
2022/06/08 13:03:43;;;;;;;0.80;0.60;;;22.60;99.90;;;;;;5082379;28;20440;-77
2022/06/08 13:06:10;;;;;;;0.90;0.60;;;22.60;99.90;;;;;;5087251;28;20427;-78
2022/06/08 13:08:36;;;;;;;0.80;0.70;;;22.60;99.90;;;;;;5102224;28;20435;-77
2022/06/08 13:11:05;;;;;;;1.10;0.83;;;22.50;99.90;;;;;;5103722;28;20480;-76
2022/06/08 13:13:37;;;;;;;1.43;0.80;;;22.40;99.90;;;;;;5101636;28;20419;-77
2022/06/08 13:16:12;;;;;;;2.27;1.63;;;22.40;99.90;;;;;;5098855;28;20455;-77
2022/06/08 13:18:38;;;;;;;0.80;0.60;;;22.30;99.90;;;;;;5083434;28;20455;-77
2022/06/08 13:21:07;;;;;;;0.90;0.70;;;22.30;99.90;;;;;;5081018;28;20922;-77
2022/06/08 13:23:33;;;;;;;0.80;0.60;;;22.20;99.90;;;;;;5080936;28;20393;-77
2022/06/08 13:26:00;;;;;;;0.90;0.60;;;22.10;99.90;;;;;;5083133;28;20486;-77
2022/06/08 13:28:31;;;;;;;1.00;0.70;;;22.00;99.90;;;;;;5101608;28;20169;-77